Main page
METAR-TAF:

METAR-TAF

Airports :

Fa'a'ā International Airport

Tahiti, French Polynesia

latitude: 17-33S, longitude: 149-37W, elevation: 2 m

Current weather observation

The report was made 40 minutes ago, at 05:00 UTC
Wind 9 kt from the East
Temperature 27°C
Humidity 70%
Pressure 1014 hPa
Visibility 10 km or more
Few clouds at a height of 2800 ft
Broken clouds at a height of 25000 ft

METAR: NTAA 080500Z 08009KT 9999 FEW028 BKN250 27/21 Q1014 NOSIG

Time: 19:40 (05:40 UTC)

Forecast

The report was made 6 hours and 40 minutes ago, at 23:00 UTC
Forecast valid from 08 at 00 UTC to 09 at 06 UTC
Wind 18 kt from the Northeast with gusts up to 30 kt
Visibility 10 km or more
Few clouds at a height of 2500 ft
Becoming
from 08 at 04 UTC to 08 at 06 UTC
Wind 10 kt from the Northeast

TAF: NTAA 072300Z 0800/0906 05018G30KT 9999 FEW025 BECMG 0804/0806 05010KT

Weather observations and forecasts of more than 4000 airports (METAR and TAF reports).

The available stations are represented by yellow and red dots on the map.

Hover mouse over dot to see the name of the station.

Then click to see weather observations and forecasts.

To change the map : click on the green buttons with a black cross to zoom in, on the green button with a dash to zoom out, or on the green arrows for adjacent maps.


METAR-TAF: